Serenade Of The Seas — C6FV8 — position and weather

sailwx.info

Track history (hours):
 
Tides and Currents Weather Stations Pressure Air Temp Water Temp Dewpoint Dewpoint Depression Visibility Wind Speed Wind Dir Waves Ship Positions

Serenade Of The Seas

Operator: Royal Caribbean Cruises Ltd

Last reported at 2018-Jun-22 18:16 UTC. Time now 2018-Jun-22 18:38 UTC.
Position N 59°30' E 022°36'.

Length 294 m; draft 8.7 m.

Type: Ship. MMSI: 311492000.

Date/timePositionNaut miles runAvg speedWind from/ knotsBaromVisibWave heightAir tempDewpointWater temp
2018-Jun-22 18:16N 59°30' E 022°36'620.2
2018-Jun-22 17:58N 59°32' E 022°48'920.0
2018-Jun-22 17:30N 59°33' E 023°06'1019.7
2018-Jun-22 17:00N 59°35' E 023°25'1019.5
2018-Jun-22 16:30N 59°33' E 023°44'1819.6
2018-Jun-22 15:36N 59°30' E 024°18'114.0
2018-Jun-22 15:30N 59°30' E 024°21'815.4
2018-Jun-22 15:00N 59°31' E 024°36'5 9.3
2018-Jun-22 14:30N 59°30' E 024°45'3 6.7
2018-Jun-22 13:59N 59°27' E 024°46'0 0.0
2018-Jun-22 13:29N 59°27' E 024°46'0 0.0
2018-Jun-22 12:59N 59°27' E 024°46'0 0.0
2018-Jun-22 12:29N 59°27' E 024°46'0 0.0
2018-Jun-22 11:59N 59°27' E 024°46'0 0.0
2018-Jun-22 11:29N 59°27' E 024°46'0 0.0
2018-Jun-22 10:59N 59°27' E 024°46'0 0.0
2018-Jun-22 10:29N 59°27' E 024°46'0 0.0
2018-Jun-22 09:59N 59°27' E 024°46'0 0.0
2018-Jun-22 09:29N 59°27' E 024°46'0 0.0
2018-Jun-22 08:59N 59°27' E 024°46'0 0.0
2018-Jun-22 08:29N 59°27' E 024°46'0 0.0
2018-Jun-22 07:59N 59°27' E 024°46'0 0.0
2018-Jun-22 07:29N 59°27' E 024°46'0 0.0
2018-Jun-22 07:00N 59°27' E 024°46'0 0.0
2018-Jun-22 06:31N 59°27' E 024°46'0 0.0
2018-Jun-22 05:59N 59°27' E 024°46'0 0.0
2018-Jun-22 05:30N 59°27' E 024°46'0 0.0
2018-Jun-22 05:00N 59°27' E 024°46'0 0.0
2018-Jun-22 04:29N 59°27' E 024°46'0 0.0
2018-Jun-22 03:59N 59°27' E 024°46'0 0.5
2018-Jun-22 03:30N 59°27' E 024°46'611.9
2018-Jun-22 03:01N 59°33' E 024°42'611.1
2018-Jun-22 02:30N 59°38' E 024°41'816.0
2018-Jun-22 02:00N 59°45' E 024°50'817.0
2018-Jun-22 01:30N 59°50' E 025°03'917.6
2018-Jun-22 01:00N 59°52' E 025°20'917.5
2018-Jun-22 00:30N 59°54' E 025°37'1918.2
2018-Jun-21 23:29N 59°58' E 026°13'817.1
2018-Jun-21 23:00N 60°01' E 026°29'1419.1
2018-Jun-21 22:17N 59°60' E 026°56'619.6
2018-Jun-21 21:59N 60°01' E 027°08'817.6
2018-Jun-21 21:31N 60°05' E 027°22'918.8
2018-Jun-21 21:00N 60°10' E 027°38'918.2
2018-Jun-21 20:30N 60°11' E 027°56'1019.5
2018-Jun-21 20:00N 60°08' E 028°16'1019.3
2018-Jun-21 19:30N 60°03' E 028°32'1019.5
2018-Jun-21 19:00N 60°03' E 028°52'1019.0
2018-Jun-21 18:29N 60°02' E 029°12'1712.9
2018-Jun-21 17:08N 59°59' E 029°45'1 9.9
2018-Jun-21 17:00N 59°58' E 029°47'510.6
2018-Jun-21 16:30N 59°56' E 029°57'5 9.7
2018-Jun-21 16:00N 59°57' E 030°07'2 4.4
2018-Jun-21 15:28N 59°57' E 030°11'0 0.0
2018-Jun-21 14:22N 59°57' E 030°11'0 0.0
2018-Jun-21 13:58N 59°57' E 030°11'0 0.0
2018-Jun-21 13:28N 59°57' E 030°11'0 0.0
2018-Jun-21 12:58N 59°57' E 030°11'0 0.0
2018-Jun-21 12:28N 59°57' E 030°11'0 0.0
2018-Jun-21 11:58N 59°57' E 030°11'0 0.0
2018-Jun-21 11:28N 59°57' E 030°11'0 0.0
2018-Jun-21 10:58N 59°57' E 030°11'0 0.0
2018-Jun-21 10:28N 59°57' E 030°11'0 0.0
2018-Jun-21 09:55N 59°57' E 030°11'0 0.0
2018-Jun-21 09:25N 59°57' E 030°11'0 0.0
2018-Jun-21 08:49N 59°57' E 030°11'0 0.0
2018-Jun-21 08:28N 59°57' E 030°11'0 0.0
2018-Jun-21 07:52N 59°57' E 030°11'0 0.0
2018-Jun-21 07:28N 59°57' E 030°11'0 0.0
2018-Jun-21 06:58N 59°57' E 030°11'0 0.0
2018-Jun-21 06:28N 59°57' E 030°11'0 0.0
2018-Jun-21 05:55N 59°57' E 030°11'0 0.0
2018-Jun-21 05:28N 59°57' E 030°11'0 0.0
2018-Jun-21 04:58N 59°57' E 030°11'0 0.0
2018-Jun-21 04:25N 59°57' E 030°11'0 0.0
2018-Jun-21 03:58N 59°57' E 030°11'0 0.0
2018-Jun-21 03:28N 59°57' E 030°11'0 0.0
2018-Jun-21 02:58N 59°57' E 030°11'0 0.0
2018-Jun-21 02:28N 59°57' E 030°11'0 0.0
2018-Jun-21 01:58N 59°57' E 030°11'0 0.0
2018-Jun-21 01:28N 59°57' E 030°11'0 0.0
2018-Jun-21 00:58N 59°57' E 030°11'0 0.0
2018-Jun-21 00:19N 59°57' E 030°11'0 0.0
2018-Jun-20 23:58N 59°57' E 030°11'0 0.0
2018-Jun-20 23:25N 59°57' E 030°11'0 0.0
2018-Jun-20 22:58N 59°57' E 030°11'0 0.0
2018-Jun-20 22:28N 59°57' E 030°11'0 0.0
2018-Jun-20 21:58N 59°57' E 030°11'0 0.0
2018-Jun-20 21:28N 59°57' E 030°11'0 0.0
2018-Jun-20 20:58N 59°57' E 030°11'0 0.0
2018-Jun-20 20:25N 59°57' E 030°11'0 0.0
2018-Jun-20 19:58N 59°57' E 030°11'0 0.0
2018-Jun-20 19:28N 59°57' E 030°11'0 0.0
2018-Jun-20 18:58N 59°57' E 030°11'0 0.0
2018-Jun-20 18:28N 59°57' E 030°11'0 0.0
2018-Jun-20 17:58N 59°57' E 030°11'0 0.0
2018-Jun-20 17:25N 59°57' E 030°11'0 0.0
2018-Jun-20 16:58N 59°57' E 030°11'0 0.0
2018-Jun-20 16:26N 59°57' E 030°11'0 0.0
2018-Jun-20 15:58N 59°57' E 030°11'0 0.0
2018-Jun-20 15:25N 59°57' E 030°11'0 0.0
2018-Jun-20 14:58N 59°57' E 030°11'0 0.0
2018-Jun-20 14:28N 59°57' E 030°11'0 0.0
2018-Jun-20 13:58N 59°57' E 030°11'0 0.0
2018-Jun-20 13:28N 59°57' E 030°11'0 0.0
2018-Jun-20 12:58N 59°57' E 030°11'0 0.0
2018-Jun-20 12:28N 59°57' E 030°11'0 0.0
2018-Jun-20 11:58N 59°57' E 030°11'0 0.0
2018-Jun-20 11:28N 59°57' E 030°11'0 0.0
2018-Jun-20 10:55N 59°57' E 030°11'0 0.0
2018-Jun-20 10:28N 59°57' E 030°11'0 0.0
2018-Jun-20 09:55N 59°57' E 030°11'0 0.0
2018-Jun-20 09:28N 59°57' E 030°11'0 0.0
2018-Jun-20 08:55N 59°57' E 030°11'0 0.0
2018-Jun-20 08:28N 59°57' E 030°11'0 0.0
2018-Jun-20 07:58N 59°57' E 030°11'0 0.0
2018-Jun-20 07:28N 59°57' E 030°11'0 0.0
2018-Jun-20 06:58N 59°57' E 030°11'0 0.0
2018-Jun-20 06:25N 59°57' E 030°11'0 0.0
2018-Jun-20 05:58N 59°57' E 030°11'0 0.0
2018-Jun-20 05:28N 59°57' E 030°11'0 0.0
2018-Jun-20 04:58N 59°57' E 030°11'0 0.0
2018-Jun-20 04:28N 59°57' E 030°11'0 0.0
2018-Jun-20 03:58N 59°57' E 030°11'0 0.0
2018-Jun-20 03:28N 59°57' E 030°11'0 0.0
2018-Jun-20 02:55N 59°57' E 030°11'0 0.0
2018-Jun-20 02:28N 59°57' E 030°11'0 0.0
2018-Jun-20 01:55N 59°57' E 030°11'0 0.0
2018-Jun-20 01:25N 59°57' E 030°11'0 0.0
2018-Jun-20 00:58N 59°57' E 030°11'0 0.0
2018-Jun-20 00:28N 59°57' E 030°11'0 0.0
2018-Jun-19 23:58N 59°57' E 030°11'0 0.0
2018-Jun-19 23:28N 59°57' E 030°11'0 0.0
2018-Jun-19 22:58N 59°57' E 030°11'0 0.0
2018-Jun-19 22:28N 59°57' E 030°11'0 0.0
2018-Jun-19 21:58N 59°57' E 030°11'0 0.0
2018-Jun-19 21:28N 59°57' E 030°11'0 0.0
2018-Jun-19 20:58N 59°57' E 030°11'0 0.0
2018-Jun-19 20:28N 59°57' E 030°11'0 0.0
2018-Jun-19 19:58N 59°57' E 030°11'0 0.0
2018-Jun-19 19:28N 59°57' E 030°11'0 0.0
2018-Jun-19 18:58N 59°57' E 030°11'0 0.0
2018-Jun-19 18:25N 59°57' E 030°11'0 0.0
2018-Jun-19 17:58N 59°57' E 030°11'0 0.0
2018-Jun-19 17:28N 59°57' E 030°11'0 0.0
2018-Jun-19 16:58N 59°57' E 030°11'0 0.0
2018-Jun-19 16:28N 59°57' E 030°11'0 0.0
2018-Jun-19 15:55N 59°57' E 030°11'0 0.0
2018-Jun-19 15:28N 59°57' E 030°11'0 0.0
2018-Jun-19 14:55N 59°57' E 030°11'0 0.0
2018-Jun-19 14:25N 59°57' E 030°11'0 0.0
2018-Jun-19 13:58N 59°57' E 030°11'0 0.0
2018-Jun-19 13:28N 59°57' E 030°11'0 0.0
2018-Jun-19 12:58N 59°57' E 030°11'0 0.0
2018-Jun-19 12:28N 59°57' E 030°11'0 0.0
2018-Jun-19 11:58N 59°57' E 030°11'0 0.0
2018-Jun-19 11:25N 59°57' E 030°11'0 0.0
2018-Jun-19 10:58N 59°57' E 030°11'0 0.0
2018-Jun-19 10:28N 59°57' E 030°11'0 0.0
2018-Jun-19 09:58N 59°57' E 030°11'0 0.0
2018-Jun-19 09:28N 59°57' E 030°11'0 0.0
2018-Jun-19 08:58N 59°57' E 030°11'0 0.0
2018-Jun-19 08:25N 59°57' E 030°11'0 0.0
2018-Jun-19 07:58N 59°57' E 030°11'0 0.0
2018-Jun-19 07:28N 59°57' E 030°11'0 0.0
2018-Jun-19 06:58N 59°57' E 030°11'0 0.0
2018-Jun-19 06:28N 59°57' E 030°11'0 0.0
2018-Jun-19 05:55N 59°57' E 030°11'0 0.0
2018-Jun-19 05:25N 59°57' E 030°11'0 0.0
2018-Jun-19 03:53N 59°57' E 030°11'1 1.9
2018-Jun-19 03:28N 59°57' E 030°10'5 8.7
2018-Jun-19 02:53N 59°55' E 030°00'2810.9
2018-Jun-19 00:21N 60°02' E 029°07'514.2
2018-Jun-18 23:59N 60°02' E 028°56'714.3
2018-Jun-18 23:30N 60°02' E 028°43'714.4
2018-Jun-18 23:00N 60°03' E 028°29'714.0
2018-Jun-18 22:30N 60°06' E 028°16'715.0
2018-Jun-18 22:00N 60°09' E 028°02'815.0
2018-Jun-18 21:30N 60°10' E 027°47'814.9
2018-Jun-18 20:59N 60°07' E 027°33'715.4
2018-Jun-18 20:30N 60°03' E 027°21'815.0
2018-Jun-18 20:00N 59°59' E 027°08'814.8
2018-Jun-18 19:29N 59°59' E 026°53'815.5
2018-Jun-18 19:00N 59°59' E 026°38'915.4
2018-Jun-18 18:25N 59°57' E 026°20'1315.4
2018-Jun-18 17:34N 59°54' E 025°55'215.6
2018-Jun-18 17:26N 59°53' E 025°51'715.9
2018-Jun-18 17:00N 59°52' E 025°38'815.5
2018-Jun-18 16:30N 59°53' E 025°22'816.1
2018-Jun-18 16:00N 59°57' E 025°08'714.5
2018-Jun-18 15:30N 60°01' E 024°56'713.3
2018-Jun-18 15:01N 60°08' E 024°54'2 3.0
2018-Jun-18 14:30N 60°09' E 024°55'0 0.0
2018-Jun-18 14:00N 60°09' E 024°55'0 0.0
2018-Jun-18 13:30N 60°09' E 024°55'0 0.0
2018-Jun-18 13:00N 60°09' E 024°55'0 0.0
2018-Jun-18 12:30N 60°09' E 024°55'0 0.0
2018-Jun-18 12:00N 60°09' E 024°55'0 0.0
2018-Jun-18 11:24N 60°09' E 024°55'0 0.0
2018-Jun-18 11:00N 60°09' E 024°55'0 0.0
2018-Jun-18 10:30N 60°09' E 024°55'0 0.0
2018-Jun-18 10:00N 60°09' E 024°55'0 0.0
2018-Jun-18 09:30N 60°09' E 024°55'0 0.0
2018-Jun-18 09:00N 60°09' E 024°55'0 0.0
2018-Jun-18 08:30N 60°09' E 024°55'0 0.0
2018-Jun-18 07:57N 60°09' E 024°55'0 0.0
2018-Jun-18 07:30N 60°09' E 024°55'0 0.0
2018-Jun-18 07:00N 60°09' E 024°55'0 0.0
2018-Jun-18 06:30N 60°09' E 024°55'0 0.0
2018-Jun-18 06:00N 60°09' E 024°55'0 0.0
2018-Jun-18 05:30N 60°09' E 024°55'0 0.0
2018-Jun-18 05:00N 60°09' E 024°55'0 0.0
2018-Jun-18 04:30N 60°09' E 024°55'0 0.9
2018-Jun-18 04:01N 60°09' E 024°55'611.6
2018-Jun-18 03:30N 60°03' E 024°54'714.0
2018-Jun-18 03:00N 59°56' E 024°59'918.3
2018-Jun-18 02:30N 59°48' E 024°50'816.8
2018-Jun-18 02:00N 59°44' E 024°35'917.2
2018-Jun-18 01:30N 59°42' E 024°18'917.7
2018-Jun-18 01:00N 59°39' E 024°02'917.8
2018-Jun-18 00:30N 59°37' E 023°45'917.9
2018-Jun-18 00:00N 59°34' E 023°28'917.8
2018-Jun-17 23:30N 59°31' E 023°12'917.9
2018-Jun-17 23:00N 59°29' E 022°55'918.1
2018-Jun-17 22:30N 59°26' E 022°38'918.6
2018-Jun-17 22:00N 59°20' E 022°23'918.6
2018-Jun-17 21:30N 59°15' E 022°08'1118.6
2018-Jun-17 20:54N 59°08' E 021°51'718.3
2018-Jun-17 20:30N 59°03' E 021°41'1318.4
2018-Jun-17 19:48N 58°52' E 021°26'818.4
2018-Jun-17 19:20N 58°46' E 021°16'1418.4
2018-Jun-17 18:33N 58°34' E 020°59'718.0
2018-Jun-17 18:11N 58°29' E 020°52'5418.6
2018-Jun-17 15:16N 57°45' E 019°51'818.4
2018-Jun-17 14:50N 57°39' E 019°41'618.6
2018-Jun-17 14:29N 57°34' E 019°34'4918.5
2018-Jun-17 11:50N 56°54' E 018°40'3017.9
2018-Jun-17 10:08N 56°36' E 017°56'8917.8
2018-Jun-17 05:08N 55°44' E 015°46'718.1
2018-Jun-17 04:46N 55°42' E 015°35'518.3
2018-Jun-17 04:30N 55°40' E 015°27'918.1
2018-Jun-17 03:59N 55°35' E 015°13'918.4
2018-Jun-17 03:30N 55°30' E 015°01'918.6
2018-Jun-17 03:00N 55°25' E 014°46'918.3
2018-Jun-17 02:30N 55°19' E 014°34'918.5
2018-Jun-17 02:00N 55°13' E 014°23'917.2
2018-Jun-17 01:30N 55°06' E 014°13'816.4
2018-Jun-17 01:00N 55°01' E 014°02'917.0
2018-Jun-17 00:29N 54°58' E 013°47'1117.4
2018-Jun-16 23:51N 54°54' E 013°29'1319.0
2018-Jun-16 23:10N 54°50' E 013°08'318.5
2018-Jun-16 22:59N 54°49' E 013°03'1018.4
2018-Jun-16 22:28N 54°46' E 012°47'918.8
2018-Jun-16 22:00N 54°42' E 012°33'918.5
2018-Jun-16 21:30N 54°37' E 012°20'917.4
2018-Jun-16 21:00N 54°29' E 012°13'917.6
2018-Jun-16 20:30N 54°21' E 012°07'713.6
2018-Jun-16 20:00N 54°15' E 012°04'4 7.4
2018-Jun-16 19:30N 54°11' E 012°06'1 1.1
2018-Jun-16 18:59N 54°10' E 012°06'0 0.0
2018-Jun-16 17:41N 54°10' E 012°06'0 0.0
2018-Jun-16 17:23N 54°10' E 012°06'0 0.0
2018-Jun-16 16:56N 54°10' E 012°06'0 0.0
2018-Jun-16 16:29N 54°10' E 012°06'0 0.0
2018-Jun-16 15:50N 54°10' E 012°06'0 0.0
2018-Jun-16 11:20N 54°10' E 012°06'0 0.0
2018-Jun-16 08:41N 54°10' E 012°06'0 0.0
2018-Jun-16 08:20N 54°10' E 012°06'0 0.0
2018-Jun-16 07:38N 54°10' E 012°06'0 0.0
2018-Jun-16 07:26N 54°10' E 012°06'0 0.0
2018-Jun-16 06:53N 54°10' E 012°06'0 0.0
2018-Jun-16 06:26N 54°10' E 012°06'0 0.0
2018-Jun-16 05:59N 54°10' E 012°06'0 0.0
2018-Jun-16 05:14N 54°10' E 012°06'0 0.0
2018-Jun-16 05:00N 54°10' E 012°06'1 2.8
2018-Jun-16 04:30N 54°12' E 012°05'4 7.6
2018-Jun-16 03:59N 54°15' E 012°02'510.8
2018-Jun-16 03:30N 54°19' E 011°56'814.7
2018-Jun-16 02:59N 54°24' E 011°46'613.1
2018-Jun-16 02:30N 54°27' E 011°37'713.1
2018-Jun-16 02:01N 54°30' E 011°27'713.6
2018-Jun-16 01:31N 54°33' E 011°17'713.9
2018-Jun-16 01:01N 54°37' E 011°06'712.8
2018-Jun-16 00:29N 54°40' E 010°56'611.5
2018-Jun-16 00:00N 54°45' E 010°51'714.0
2018-Jun-15 23:30N 54°52' E 010°52'713.9
2018-Jun-15 23:00N 54°58' E 010°59'713.3
2018-Jun-15 22:30N 55°04' E 011°02'713.9
2018-Jun-15 22:00N 55°11' E 011°04'612.6
2018-Jun-15 21:30N 55°17' E 011°03'5910.7
2018-Jun-15 15:59N 56°10' E 010°14'0 0.3
2018-Jun-15 14:38N 56°09' E 010°13'0 0.0
2018-Jun-15 14:18N 56°09' E 010°13'0 0.0
2018-Jun-15 13:59N 56°09' E 010°13'0 0.0
2018-Jun-15 13:23N 56°09' E 010°13'0 0.0
2018-Jun-15 12:59N 56°09' E 010°13'0 0.0
2018-Jun-15 12:29N 56°09' E 010°13'0 0.0
2018-Jun-15 11:56N 56°09' E 010°13'0 0.0
2018-Jun-15 08:20N 56°09' E 010°13'0 0.0
2018-Jun-15 07:53N 56°09' E 010°13'0 0.0
2018-Jun-15 07:20N 56°09' E 010°13'0 0.0
2018-Jun-15 06:50N 56°09' E 010°13'0 0.0
2018-Jun-15 04:59N 56°09' E 010°13'0 0.8
2018-Jun-15 04:30N 56°10' E 010°14'3 5.5
2018-Jun-15 03:55N 56°08' E 010°19'71 7.3
2018-Jun-14 18:10N 56°09' E 012°27'311.1
2018-Jun-14 17:51N 56°07' E 012°32'411.3
2018-Jun-14 17:30N 56°04' E 012°37'510.3
2018-Jun-14 17:00N 55°60' E 012°41'611.2
2018-Jun-14 16:30N 55°55' E 012°44'611.8
2018-Jun-14 16:00N 55°49' E 012°44'510.6
2018-Jun-14 15:30N 55°44' E 012°40'2 3.4
2018-Jun-14 14:58N 55°43' E 012°37'0 0.0
2018-Jun-14 14:28N 55°43' E 012°37'0 0.0
2018-Jun-14 13:58N 55°43' E 012°37'0 0.0
2018-Jun-14 13:25N 55°43' E 012°37'0 0.0
2018-Jun-14 12:58N 55°43' E 012°37'0 0.0
2018-Jun-14 12:28N 55°43' E 012°37'0 0.0
2018-Jun-14 11:58N 55°43' E 012°37'0 0.0
2018-Jun-14 11:28N 55°43' E 012°37'0 0.0
2018-Jun-14 10:58N 55°43' E 012°37'0 0.0
2018-Jun-14 10:28N 55°43' E 012°37'0 0.0
2018-Jun-14 09:58N 55°43' E 012°37'0 0.0
2018-Jun-14 09:28N 55°43' E 012°37'0 0.0
2018-Jun-14 08:58N 55°43' E 012°37'0 0.0
2018-Jun-14 08:28N 55°43' E 012°37'0 0.0
2018-Jun-14 07:58N 55°43' E 012°37'0 0.0
2018-Jun-14 07:28N 55°43' E 012°37'0 0.0
2018-Jun-14 06:58N 55°43' E 012°37'0 0.0
2018-Jun-14 06:28N 55°43' E 012°37'0 0.0
2018-Jun-14 05:58N 55°43' E 012°37'0 0.0
2018-Jun-14 05:28N 55°43' E 012°37'0 0.0
2018-Jun-14 04:58N 55°43' E 012°37'0 0.6
2018-Jun-14 04:30N 55°43' E 012°38'5 9.2
2018-Jun-14 04:00N 55°47' E 012°42'612.3
2018-Jun-14 03:30N 55°53' E 012°40'611.9
2018-Jun-14 03:00N 55°59' E 012°40'713.0
2018-Jun-14 02:30N 56°05' E 012°36'714.7
2018-Jun-14 02:00N 56°09' E 012°25'714.4
2018-Jun-14 01:30N 56°13' E 012°15'713.8
2018-Jun-14 00:58N 56°17' E 012°04'6313.8
2018-Jun-13 20:23N 57°18' E 011°30'614.9
2018-Jun-13 20:01N 57°23' E 011°26'714.6
2018-Jun-13 19:31N 57°29' E 011°19'714.2
2018-Jun-13 19:01N 57°34' E 011°08'814.9
2018-Jun-13 18:26N 57°40' E 010°58'10814.4
2018-Jun-13 10:57N 57°42' E 007°37'714.6
2018-Jun-13 10:30N 57°42' E 007°24'714.6
2018-Jun-13 10:00N 57°42' E 007°11'714.3
2018-Jun-13 09:30N 57°43' E 006°57'4913.9
2018-Jun-13 05:59N 58°09' E 005°40'714.6
2018-Jun-13 05:30N 58°13' E 005°29'1314.8
2018-Jun-13 04:36N 58°23' E 005°10'114.7
2018-Jun-13 04:30N 58°24' E 005°09'714.4
2018-Jun-13 04:00N 58°29' E 004°59'714.3
2018-Jun-13 03:30N 58°34' E 004°49'714.1
2018-Jun-13 03:00N 58°39' E 004°40'11813.7
2018-Jun-12 18:25N 60°37' E 004°22'  
Track history (hours):
 
Tides and Currents Weather Stations Pressure Air Temp Water Temp Dewpoint Dewpoint Depression Visibility Wind Speed Wind Dir Waves Ship Positions

Serenade Of The Seas

Operator: Royal Caribbean Cruises Ltd

Last reported at 2018-Jun-22 18:16 UTC. Time now 2018-Jun-22 18:38 UTC.
Position N 59°30' E 022°36'.

Length 294 m; draft 8.7 m.

Type: Ship. MMSI: 311492000.

Date/timePositionNaut miles runAvg speedWind from/ knotsBaromVisibWave heightAir tempDewpointWater temp
2018-Jun-22 18:16N 59°30' E 022°36'620.2
2018-Jun-22 17:58N 59°32' E 022°48'920.0
2018-Jun-22 17:30N 59°33' E 023°06'1019.7
2018-Jun-22 17:00N 59°35' E 023°25'1019.5
2018-Jun-22 16:30N 59°33' E 023°44'1819.6
2018-Jun-22 15:36N 59°30' E 024°18'114.0
2018-Jun-22 15:30N 59°30' E 024°21'815.4
2018-Jun-22 15:00N 59°31' E 024°36'5 9.3
2018-Jun-22 14:30N 59°30' E 024°45'3 6.7
2018-Jun-22 13:59N 59°27' E 024°46'0 0.0
2018-Jun-22 13:29N 59°27' E 024°46'0 0.0
2018-Jun-22 12:59N 59°27' E 024°46'0 0.0
2018-Jun-22 12:29N 59°27' E 024°46'0 0.0
2018-Jun-22 11:59N 59°27' E 024°46'0 0.0
2018-Jun-22 11:29N 59°27' E 024°46'0 0.0
2018-Jun-22 10:59N 59°27' E 024°46'0 0.0
2018-Jun-22 10:29N 59°27' E 024°46'0 0.0
2018-Jun-22 09:59N 59°27' E 024°46'0 0.0
2018-Jun-22 09:29N 59°27' E 024°46'0 0.0
2018-Jun-22 08:59N 59°27' E 024°46'0 0.0
2018-Jun-22 08:29N 59°27' E 024°46'0 0.0
2018-Jun-22 07:59N 59°27' E 024°46'0 0.0
2018-Jun-22 07:29N 59°27' E 024°46'0 0.0
2018-Jun-22 07:00N 59°27' E 024°46'0 0.0
2018-Jun-22 06:31N 59°27' E 024°46'0 0.0
2018-Jun-22 05:59N 59°27' E 024°46'0 0.0
2018-Jun-22 05:30N 59°27' E 024°46'0 0.0
2018-Jun-22 05:00N 59°27' E 024°46'0 0.0
2018-Jun-22 04:29N 59°27' E 024°46'0 0.0
2018-Jun-22 03:59N 59°27' E 024°46'0 0.5
2018-Jun-22 03:30N 59°27' E 024°46'611.9
2018-Jun-22 03:01N 59°33' E 024°42'611.1
2018-Jun-22 02:30N 59°38' E 024°41'816.0
2018-Jun-22 02:00N 59°45' E 024°50'817.0
2018-Jun-22 01:30N 59°50' E 025°03'917.6
2018-Jun-22 01:00N 59°52' E 025°20'917.5
2018-Jun-22 00:30N 59°54' E 025°37'1918.2
2018-Jun-21 23:29N 59°58' E 026°13'817.1
2018-Jun-21 23:00N 60°01' E 026°29'1419.1
2018-Jun-21 22:17N 59°60' E 026°56'619.6
2018-Jun-21 21:59N 60°01' E 027°08'817.6
2018-Jun-21 21:31N 60°05' E 027°22'918.8
2018-Jun-21 21:00N 60°10' E 027°38'918.2
2018-Jun-21 20:30N 60°11' E 027°56'1019.5
2018-Jun-21 20:00N 60°08' E 028°16'1019.3
2018-Jun-21 19:30N 60°03' E 028°32'1019.5
2018-Jun-21 19:00N 60°03' E 028°52'1019.0
2018-Jun-21 18:29N 60°02' E 029°12'1712.9
2018-Jun-21 17:08N 59°59' E 029°45'1 9.9
2018-Jun-21 17:00N 59°58' E 029°47'510.6
2018-Jun-21 16:30N 59°56' E 029°57'5 9.7
2018-Jun-21 16:00N 59°57' E 030°07'2 4.4
2018-Jun-21 15:28N 59°57' E 030°11'0 0.0
2018-Jun-21 14:22N 59°57' E 030°11'0 0.0
2018-Jun-21 13:58N 59°57' E 030°11'0 0.0
2018-Jun-21 13:28N 59°57' E 030°11'0 0.0
2018-Jun-21 12:58N 59°57' E 030°11'0 0.0
2018-Jun-21 12:28N 59°57' E 030°11'0 0.0
2018-Jun-21 11:58N 59°57' E 030°11'0 0.0
2018-Jun-21 11:28N 59°57' E 030°11'0 0.0
2018-Jun-21 10:58N 59°57' E 030°11'0 0.0
2018-Jun-21 10:28N 59°57' E 030°11'0 0.0
2018-Jun-21 09:55N 59°57' E 030°11'0 0.0
2018-Jun-21 09:25N 59°57' E 030°11'0 0.0
2018-Jun-21 08:49N 59°57' E 030°11'0 0.0
2018-Jun-21 08:28N 59°57' E 030°11'0 0.0
2018-Jun-21 07:52N 59°57' E 030°11'0 0.0
2018-Jun-21 07:28N 59°57' E 030°11'0 0.0
2018-Jun-21 06:58N 59°57' E 030°11'0 0.0
2018-Jun-21 06:28N 59°57' E 030°11'0 0.0
2018-Jun-21 05:55N 59°57' E 030°11'0 0.0
2018-Jun-21 05:28N 59°57' E 030°11'0 0.0
2018-Jun-21 04:58N 59°57' E 030°11'0 0.0
2018-Jun-21 04:25N 59°57' E 030°11'0 0.0
2018-Jun-21 03:58N 59°57' E 030°11'0 0.0
2018-Jun-21 03:28N 59°57' E 030°11'0 0.0
2018-Jun-21 02:58N 59°57' E 030°11'0 0.0
2018-Jun-21 02:28N 59°57' E 030°11'0 0.0
2018-Jun-21 01:58N 59°57' E 030°11'0 0.0
2018-Jun-21 01:28N 59°57' E 030°11'0 0.0
2018-Jun-21 00:58N 59°57' E 030°11'0 0.0
2018-Jun-21 00:19N 59°57' E 030°11'0 0.0
2018-Jun-20 23:58N 59°57' E 030°11'0 0.0
2018-Jun-20 23:25N 59°57' E 030°11'0 0.0
2018-Jun-20 22:58N 59°57' E 030°11'0 0.0
2018-Jun-20 22:28N 59°57' E 030°11'0 0.0
2018-Jun-20 21:58N 59°57' E 030°11'0 0.0
2018-Jun-20 21:28N 59°57' E 030°11'0 0.0
2018-Jun-20 20:58N 59°57' E 030°11'0 0.0
2018-Jun-20 20:25N 59°57' E 030°11'0 0.0
2018-Jun-20 19:58N 59°57' E 030°11'0 0.0
2018-Jun-20 19:28N 59°57' E 030°11'0 0.0
2018-Jun-20 18:58N 59°57' E 030°11'0 0.0
2018-Jun-20 18:28N 59°57' E 030°11'0 0.0
2018-Jun-20 17:58N 59°57' E 030°11'0 0.0
2018-Jun-20 17:25N 59°57' E 030°11'0 0.0
2018-Jun-20 16:58N 59°57' E 030°11'0 0.0
2018-Jun-20 16:26N 59°57' E 030°11'0 0.0
2018-Jun-20 15:58N 59°57' E 030°11'0 0.0
2018-Jun-20 15:25N 59°57' E 030°11'0 0.0
2018-Jun-20 14:58N 59°57' E 030°11'0 0.0
2018-Jun-20 14:28N 59°57' E 030°11'0 0.0
2018-Jun-20 13:58N 59°57' E 030°11'0 0.0
2018-Jun-20 13:28N 59°57' E 030°11'0 0.0
2018-Jun-20 12:58N 59°57' E 030°11'0 0.0
2018-Jun-20 12:28N 59°57' E 030°11'0 0.0
2018-Jun-20 11:58N 59°57' E 030°11'0 0.0
2018-Jun-20 11:28N 59°57' E 030°11'0 0.0
2018-Jun-20 10:55N 59°57' E 030°11'0 0.0
2018-Jun-20 10:28N 59°57' E 030°11'0 0.0
2018-Jun-20 09:55N 59°57' E 030°11'0 0.0
2018-Jun-20 09:28N 59°57' E 030°11'0 0.0
2018-Jun-20 08:55N 59°57' E 030°11'0 0.0
2018-Jun-20 08:28N 59°57' E 030°11'0 0.0
2018-Jun-20 07:58N 59°57' E 030°11'0 0.0
2018-Jun-20 07:28N 59°57' E 030°11'0 0.0
2018-Jun-20 06:58N 59°57' E 030°11'0 0.0
2018-Jun-20 06:25N 59°57' E 030°11'0 0.0
2018-Jun-20 05:58N 59°57' E 030°11'0 0.0
2018-Jun-20 05:28N 59°57' E 030°11'0 0.0
2018-Jun-20 04:58N 59°57' E 030°11'0 0.0
2018-Jun-20 04:28N 59°57' E 030°11'0 0.0
2018-Jun-20 03:58N 59°57' E 030°11'0 0.0
2018-Jun-20 03:28N 59°57' E 030°11'0 0.0
2018-Jun-20 02:55N 59°57' E 030°11'0 0.0
2018-Jun-20 02:28N 59°57' E 030°11'0 0.0
2018-Jun-20 01:55N 59°57' E 030°11'0 0.0
2018-Jun-20 01:25N 59°57' E 030°11'0 0.0
2018-Jun-20 00:58N 59°57' E 030°11'0 0.0
2018-Jun-20 00:28N 59°57' E 030°11'0 0.0
2018-Jun-19 23:58N 59°57' E 030°11'0 0.0
2018-Jun-19 23:28N 59°57' E 030°11'0 0.0
2018-Jun-19 22:58N 59°57' E 030°11'0 0.0
2018-Jun-19 22:28N 59°57' E 030°11'0 0.0
2018-Jun-19 21:58N 59°57' E 030°11'0 0.0
2018-Jun-19 21:28N 59°57' E 030°11'0 0.0
2018-Jun-19 20:58N 59°57' E 030°11'0 0.0
2018-Jun-19 20:28N 59°57' E 030°11'0 0.0
2018-Jun-19 19:58N 59°57' E 030°11'0 0.0
2018-Jun-19 19:28N 59°57' E 030°11'0 0.0
2018-Jun-19 18:58N 59°57' E 030°11'0 0.0
2018-Jun-19 18:25N 59°57' E 030°11'0 0.0
2018-Jun-19 17:58N 59°57' E 030°11'0 0.0
2018-Jun-19 17:28N 59°57' E 030°11'0 0.0
2018-Jun-19 16:58N 59°57' E 030°11'0 0.0
2018-Jun-19 16:28N 59°57' E 030°11'0 0.0
2018-Jun-19 15:55N 59°57' E 030°11'0 0.0
2018-Jun-19 15:28N 59°57' E 030°11'0 0.0
2018-Jun-19 14:55N 59°57' E 030°11'0 0.0
2018-Jun-19 14:25N 59°57' E 030°11'0 0.0
2018-Jun-19 13:58N 59°57' E 030°11'0 0.0
2018-Jun-19 13:28N 59°57' E 030°11'0 0.0
2018-Jun-19 12:58N 59°57' E 030°11'0 0.0
2018-Jun-19 12:28N 59°57' E 030°11'0 0.0
2018-Jun-19 11:58N 59°57' E 030°11'0 0.0
2018-Jun-19 11:25N 59°57' E 030°11'0 0.0
2018-Jun-19 10:58N 59°57' E 030°11'0 0.0
2018-Jun-19 10:28N 59°57' E 030°11'0 0.0
2018-Jun-19 09:58N 59°57' E 030°11'0 0.0
2018-Jun-19 09:28N 59°57' E 030°11'0 0.0
2018-Jun-19 08:58N 59°57' E 030°11'0 0.0
2018-Jun-19 08:25N 59°57' E 030°11'0 0.0
2018-Jun-19 07:58N 59°57' E 030°11'0 0.0
2018-Jun-19 07:28N 59°57' E 030°11'0 0.0
2018-Jun-19 06:58N 59°57' E 030°11'0 0.0
2018-Jun-19 06:28N 59°57' E 030°11'0 0.0
2018-Jun-19 05:55N 59°57' E 030°11'0 0.0
2018-Jun-19 05:25N 59°57' E 030°11'0 0.0
2018-Jun-19 03:53N 59°57' E 030°11'1 1.9
2018-Jun-19 03:28N 59°57' E 030°10'5 8.7
2018-Jun-19 02:53N 59°55' E 030°00'2810.9
2018-Jun-19 00:21N 60°02' E 029°07'514.2
2018-Jun-18 23:59N 60°02' E 028°56'714.3
2018-Jun-18 23:30N 60°02' E 028°43'714.4
2018-Jun-18 23:00N 60°03' E 028°29'714.0
2018-Jun-18 22:30N 60°06' E 028°16'715.0
2018-Jun-18 22:00N 60°09' E 028°02'815.0
2018-Jun-18 21:30N 60°10' E 027°47'814.9
2018-Jun-18 20:59N 60°07' E 027°33'715.4
2018-Jun-18 20:30N 60°03' E 027°21'815.0
2018-Jun-18 20:00N 59°59' E 027°08'814.8
2018-Jun-18 19:29N 59°59' E 026°53'815.5
2018-Jun-18 19:00N 59°59' E 026°38'915.4
2018-Jun-18 18:25N 59°57' E 026°20'1315.4
2018-Jun-18 17:34N 59°54' E 025°55'215.6
2018-Jun-18 17:26N 59°53' E 025°51'715.9
2018-Jun-18 17:00N 59°52' E 025°38'815.5
2018-Jun-18 16:30N 59°53' E 025°22'816.1
2018-Jun-18 16:00N 59°57' E 025°08'714.5
2018-Jun-18 15:30N 60°01' E 024°56'713.3
2018-Jun-18 15:01N 60°08' E 024°54'2 3.0
2018-Jun-18 14:30N 60°09' E 024°55'0 0.0
2018-Jun-18 14:00N 60°09' E 024°55'0 0.0
2018-Jun-18 13:30N 60°09' E 024°55'0 0.0
2018-Jun-18 13:00N 60°09' E 024°55'0 0.0
2018-Jun-18 12:30N 60°09' E 024°55'0 0.0
2018-Jun-18 12:00N 60°09' E 024°55'0 0.0
2018-Jun-18 11:24N 60°09' E 024°55'0 0.0
2018-Jun-18 11:00N 60°09' E 024°55'0 0.0
2018-Jun-18 10:30N 60°09' E 024°55'0 0.0
2018-Jun-18 10:00N 60°09' E 024°55'0 0.0
2018-Jun-18 09:30N 60°09' E 024°55'0 0.0
2018-Jun-18 09:00N 60°09' E 024°55'0 0.0
2018-Jun-18 08:30N 60°09' E 024°55'0 0.0
2018-Jun-18 07:57N 60°09' E 024°55'0 0.0
2018-Jun-18 07:30N 60°09' E 024°55'0 0.0
2018-Jun-18 07:00N 60°09' E 024°55'0 0.0
2018-Jun-18 06:30N 60°09' E 024°55'0 0.0
2018-Jun-18 06:00N 60°09' E 024°55'0 0.0
2018-Jun-18 05:30N 60°09' E 024°55'0 0.0
2018-Jun-18 05:00N 60°09' E 024°55'0 0.0
2018-Jun-18 04:30N 60°09' E 024°55'0 0.9
2018-Jun-18 04:01N 60°09' E 024°55'611.6
2018-Jun-18 03:30N 60°03' E 024°54'714.0
2018-Jun-18 03:00N 59°56' E 024°59'918.3
2018-Jun-18 02:30N 59°48' E 024°50'816.8
2018-Jun-18 02:00N 59°44' E 024°35'917.2
2018-Jun-18 01:30N 59°42' E 024°18'917.7
2018-Jun-18 01:00N 59°39' E 024°02'917.8
2018-Jun-18 00:30N 59°37' E 023°45'917.9
2018-Jun-18 00:00N 59°34' E 023°28'917.8
2018-Jun-17 23:30N 59°31' E 023°12'917.9
2018-Jun-17 23:00N 59°29' E 022°55'918.1
2018-Jun-17 22:30N 59°26' E 022°38'918.6
2018-Jun-17 22:00N 59°20' E 022°23'918.6
2018-Jun-17 21:30N 59°15' E 022°08'1118.6
2018-Jun-17 20:54N 59°08' E 021°51'718.3
2018-Jun-17 20:30N 59°03' E 021°41'1318.4
2018-Jun-17 19:48N 58°52' E 021°26'818.4
2018-Jun-17 19:20N 58°46' E 021°16'1418.4
2018-Jun-17 18:33N 58°34' E 020°59'718.0
2018-Jun-17 18:11N 58°29' E 020°52'5418.6
2018-Jun-17 15:16N 57°45' E 019°51'818.4
2018-Jun-17 14:50N 57°39' E 019°41'618.6
2018-Jun-17 14:29N 57°34' E 019°34'4918.5
2018-Jun-17 11:50N 56°54' E 018°40'3017.9
2018-Jun-17 10:08N 56°36' E 017°56'8917.8
2018-Jun-17 05:08N 55°44' E 015°46'718.1
2018-Jun-17 04:46N 55°42' E 015°35'518.3
2018-Jun-17 04:30N 55°40' E 015°27'918.1
2018-Jun-17 03:59N 55°35' E 015°13'918.4
2018-Jun-17 03:30N 55°30' E 015°01'918.6
2018-Jun-17 03:00N 55°25' E 014°46'918.3
2018-Jun-17 02:30N 55°19' E 014°34'918.5
2018-Jun-17 02:00N 55°13' E 014°23'917.2
2018-Jun-17 01:30N 55°06' E 014°13'816.4
2018-Jun-17 01:00N 55°01' E 014°02'917.0
2018-Jun-17 00:29N 54°58' E 013°47'1117.4
2018-Jun-16 23:51N 54°54' E 013°29'1319.0
2018-Jun-16 23:10N 54°50' E 013°08'318.5
2018-Jun-16 22:59N 54°49' E 013°03'1018.4
2018-Jun-16 22:28N 54°46' E 012°47'918.8
2018-Jun-16 22:00N 54°42' E 012°33'918.5
2018-Jun-16 21:30N 54°37' E 012°20'917.4
2018-Jun-16 21:00N 54°29' E 012°13'917.6
2018-Jun-16 20:30N 54°21' E 012°07'713.6
2018-Jun-16 20:00N 54°15' E 012°04'4 7.4
2018-Jun-16 19:30N 54°11' E 012°06'1 1.1
2018-Jun-16 18:59N 54°10' E 012°06'0 0.0
2018-Jun-16 17:41N 54°10' E 012°06'0 0.0
2018-Jun-16 17:23N 54°10' E 012°06'0 0.0
2018-Jun-16 16:56N 54°10' E 012°06'0 0.0
2018-Jun-16 16:29N 54°10' E 012°06'0 0.0
2018-Jun-16 15:50N 54°10' E 012°06'0 0.0
2018-Jun-16 11:20N 54°10' E 012°06'0 0.0
2018-Jun-16 08:41N 54°10' E 012°06'0 0.0
2018-Jun-16 08:20N 54°10' E 012°06'0 0.0
2018-Jun-16 07:38N 54°10' E 012°06'0 0.0
2018-Jun-16 07:26N 54°10' E 012°06'0 0.0
2018-Jun-16 06:53N 54°10' E 012°06'0 0.0
2018-Jun-16 06:26N 54°10' E 012°06'0 0.0
2018-Jun-16 05:59N 54°10' E 012°06'0 0.0
2018-Jun-16 05:14N 54°10' E 012°06'0 0.0
2018-Jun-16 05:00N 54°10' E 012°06'1 2.8
2018-Jun-16 04:30N 54°12' E 012°05'4 7.6
2018-Jun-16 03:59N 54°15' E 012°02'510.8
2018-Jun-16 03:30N 54°19' E 011°56'814.7
2018-Jun-16 02:59N 54°24' E 011°46'613.1
2018-Jun-16 02:30N 54°27' E 011°37'713.1
2018-Jun-16 02:01N 54°30' E 011°27'713.6
2018-Jun-16 01:31N 54°33' E 011°17'713.9
2018-Jun-16 01:01N 54°37' E 011°06'712.8
2018-Jun-16 00:29N 54°40' E 010°56'611.5
2018-Jun-16 00:00N 54°45' E 010°51'714.0
2018-Jun-15 23:30N 54°52' E 010°52'713.9
2018-Jun-15 23:00N 54°58' E 010°59'713.3
2018-Jun-15 22:30N 55°04' E 011°02'713.9
2018-Jun-15 22:00N 55°11' E 011°04'612.6
2018-Jun-15 21:30N 55°17' E 011°03'5910.7
2018-Jun-15 15:59N 56°10' E 010°14'0 0.3
2018-Jun-15 14:38N 56°09' E 010°13'0 0.0
2018-Jun-15 14:18N 56°09' E 010°13'0 0.0
2018-Jun-15 13:59N 56°09' E 010°13'0 0.0
2018-Jun-15 13:23N 56°09' E 010°13'0 0.0
2018-Jun-15 12:59N 56°09' E 010°13'0 0.0
2018-Jun-15 12:29N 56°09' E 010°13'0 0.0
2018-Jun-15 11:56N 56°09' E 010°13'0 0.0
2018-Jun-15 08:20N 56°09' E 010°13'0 0.0
2018-Jun-15 07:53N 56°09' E 010°13'0 0.0
2018-Jun-15 07:20N 56°09' E 010°13'0 0.0
2018-Jun-15 06:50N 56°09' E 010°13'0 0.0
2018-Jun-15 04:59N 56°09' E 010°13'0 0.8
2018-Jun-15 04:30N 56°10' E 010°14'3 5.5
2018-Jun-15 03:55N 56°08' E 010°19'71 7.3
2018-Jun-14 18:10N 56°09' E 012°27'311.1
2018-Jun-14 17:51N 56°07' E 012°32'411.3
2018-Jun-14 17:30N 56°04' E 012°37'510.3
2018-Jun-14 17:00N 55°60' E 012°41'611.2
2018-Jun-14 16:30N 55°55' E 012°44'611.8
2018-Jun-14 16:00N 55°49' E 012°44'510.6
2018-Jun-14 15:30N 55°44' E 012°40'2 3.4
2018-Jun-14 14:58N 55°43' E 012°37'0 0.0
2018-Jun-14 14:28N 55°43' E 012°37'0 0.0
2018-Jun-14 13:58N 55°43' E 012°37'0 0.0
2018-Jun-14 13:25N 55°43' E 012°37'0 0.0
2018-Jun-14 12:58N 55°43' E 012°37'0 0.0
2018-Jun-14 12:28N 55°43' E 012°37'0 0.0
2018-Jun-14 11:58N 55°43' E 012°37'0 0.0
2018-Jun-14 11:28N 55°43' E 012°37'0 0.0
2018-Jun-14 10:58N 55°43' E 012°37'0 0.0
2018-Jun-14 10:28N 55°43' E 012°37'0 0.0
2018-Jun-14 09:58N 55°43' E 012°37'0 0.0
2018-Jun-14 09:28N 55°43' E 012°37'0 0.0
2018-Jun-14 08:58N 55°43' E 012°37'0 0.0
2018-Jun-14 08:28N 55°43' E 012°37'0 0.0
2018-Jun-14 07:58N 55°43' E 012°37'0 0.0
2018-Jun-14 07:28N 55°43' E 012°37'0 0.0
2018-Jun-14 06:58N 55°43' E 012°37'0 0.0
2018-Jun-14 06:28N 55°43' E 012°37'0 0.0
2018-Jun-14 05:58N 55°43' E 012°37'0 0.0
2018-Jun-14 05:28N 55°43' E 012°37'0 0.0
2018-Jun-14 04:58N 55°43' E 012°37'0 0.6
2018-Jun-14 04:30N 55°43' E 012°38'5 9.2
2018-Jun-14 04:00N 55°47' E 012°42'612.3
2018-Jun-14 03:30N 55°53' E 012°40'611.9
2018-Jun-14 03:00N 55°59' E 012°40'713.0
2018-Jun-14 02:30N 56°05' E 012°36'714.7
2018-Jun-14 02:00N 56°09' E 012°25'714.4
2018-Jun-14 01:30N 56°13' E 012°15'713.8
2018-Jun-14 00:58N 56°17' E 012°04'6313.8
2018-Jun-13 20:23N 57°18' E 011°30'614.9
2018-Jun-13 20:01N 57°23' E 011°26'714.6
2018-Jun-13 19:31N 57°29' E 011°19'714.2
2018-Jun-13 19:01N 57°34' E 011°08'814.9
2018-Jun-13 18:26N 57°40' E 010°58'10814.4
2018-Jun-13 10:57N 57°42' E 007°37'714.6
2018-Jun-13 10:30N 57°42' E 007°24'714.6
2018-Jun-13 10:00N 57°42' E 007°11'714.3
2018-Jun-13 09:30N 57°43' E 006°57'4913.9
2018-Jun-13 05:59N 58°09' E 005°40'714.6
2018-Jun-13 05:30N 58°13' E 005°29'1314.8
2018-Jun-13 04:36N 58°23' E 005°10'114.7
2018-Jun-13 04:30N 58°24' E 005°09'714.4
2018-Jun-13 04:00N 58°29' E 004°59'714.3
2018-Jun-13 03:30N 58°34' E 004°49'714.1
2018-Jun-13 03:00N 58°39' E 004°40'11813.7
2018-Jun-12 18:25N 60°37' E 004°22'  

Dump ship's entire track history